createdAt,value
2022-10-23T00:01:21.566Z,21.58
2022-10-23T00:03:51.318Z,22.63
2022-10-23T00:06:20.018Z,22.25
2022-10-23T00:08:47.900Z,19.83
2022-10-23T00:11:17.092Z,21.98
2022-10-23T00:13:44.683Z,23.23
2022-10-23T00:16:11.899Z,24.23
2022-10-23T00:18:39.755Z,24.45
2022-10-23T00:21:07.979Z,25.17
2022-10-23T00:23:35.406Z,21.60
2022-10-23T00:26:03.151Z,25.00
2022-10-23T00:28:30.825Z,22.60
2022-10-23T00:30:58.069Z,22.75
2022-10-23T00:33:25.531Z,21.50
2022-10-23T00:35:52.606Z,19.55
2022-10-23T00:38:19.910Z,24.08
2022-10-23T00:40:47.219Z,22.48
2022-10-23T00:43:18.087Z,22.40
2022-10-23T00:45:45.418Z,19.48
2022-10-23T00:48:13.051Z,21.95
2022-10-23T00:50:41.034Z,25.45
2022-10-23T00:53:08.441Z,27.52
2022-10-23T00:55:36.599Z,27.70
2022-10-23T00:58:03.992Z,21.55
2022-10-23T01:00:41.266Z,18.42
2022-10-23T01:03:08.586Z,23.13
2022-10-23T01:05:40.908Z,22.83
2022-10-23T01:08:12.932Z,20.33
2022-10-23T01:10:48.532Z,28.60
2022-10-23T01:13:34.144Z,21.70
2022-10-23T01:16:06.595Z,20.08
2022-10-23T01:18:40.878Z,28.75
2022-10-23T01:21:11.067Z,22.95
2022-10-23T01:23:47.889Z,21.10
2022-10-23T01:26:22.260Z,23.83
2022-10-23T01:28:52.128Z,21.08
2022-10-23T01:31:23.887Z,20.48
2022-10-23T01:33:59.846Z,21.30
2022-10-23T01:36:30.129Z,25.80
2022-10-23T01:38:59.802Z,21.73
2022-10-23T01:41:33.417Z,26.88
2022-10-23T01:44:12.830Z,21.85
2022-10-23T01:46:40.887Z,23.88
2022-10-23T01:49:10.022Z,22.20
2022-10-23T01:51:38.627Z,22.45
2022-10-23T01:54:08.104Z,23.55
2022-10-23T01:56:36.845Z,22.23
2022-10-23T01:59:09.653Z,18.98
2022-10-23T02:01:38.141Z,25.45
2022-10-23T02:04:09.281Z,23.42
2022-10-23T02:06:36.594Z,23.45
2022-10-23T02:09:04.112Z,27.08
2022-10-23T02:11:32.824Z,18.52
2022-10-23T02:14:03.043Z,14.05
2022-10-23T02:16:36.296Z,14.40
2022-10-23T02:19:05.474Z,15.63
2022-10-23T02:21:38.924Z,19.05
2022-10-23T02:24:14.473Z,18.95
2022-10-23T02:26:49.488Z,17.02
2022-10-23T02:29:19.433Z,20.02
2022-10-23T02:31:46.995Z,18.30
2022-10-23T02:34:14.285Z,15.13
2022-10-23T02:36:41.657Z,19.83
2022-10-23T02:39:08.825Z,20.52
2022-10-23T02:41:47.775Z,27.85
2022-10-23T02:44:18.257Z,17.50
2022-10-23T02:46:48.445Z,14.63
2022-10-23T02:49:26.010Z,17.20
2022-10-23T02:52:02.524Z,18.75
2022-10-23T02:54:29.893Z,19.80
2022-10-23T02:57:12.091Z,19.50
2022-10-23T02:59:46.476Z,20.58
2022-10-23T03:02:25.903Z,15.10
2022-10-23T03:04:54.625Z,12.38
2022-10-23T03:07:22.320Z,16.05
2022-10-23T03:09:49.672Z,14.63
2022-10-23T03:12:17.049Z,21.17
2022-10-23T03:14:44.250Z,15.98
2022-10-23T03:17:11.693Z,17.65
2022-10-23T03:19:38.936Z,20.70
2022-10-23T03:22:06.605Z,16.00
2022-10-23T03:24:34.022Z,16.27
2022-10-23T03:27:01.350Z,16.60
2022-10-23T03:29:28.763Z,15.27
2022-10-23T03:31:56.025Z,13.82
2022-10-23T03:34:23.386Z,22.38
2022-10-23T03:36:50.795Z,21.42
2022-10-23T03:39:17.897Z,19.25
2022-10-23T03:41:44.978Z,19.67
2022-10-23T03:44:12.283Z,22.38
2022-10-23T03:46:39.540Z,22.35
2022-10-23T03:49:07.168Z,20.70
2022-10-23T03:51:34.495Z,20.52
2022-10-23T03:54:02.870Z,13.77
2022-10-23T03:56:30.264Z,24.58
2022-10-23T03:58:57.623Z,22.35
2022-10-23T04:01:25.161Z,18.35
2022-10-23T04:03:52.878Z,22.08
2022-10-23T04:06:20.150Z,14.18
2022-10-23T04:08:47.637Z,14.88
2022-10-23T04:11:14.737Z,19.13
2022-10-23T04:13:41.902Z,18.67
2022-10-23T04:16:09.355Z,19.50
2022-10-23T04:18:36.642Z,22.50
2022-10-23T04:21:04.369Z,14.52
2022-10-23T04:23:32.644Z,17.70
2022-10-23T04:25:59.930Z,20.58
2022-10-23T04:28:27.560Z,15.68
2022-10-23T04:30:55.125Z,18.92
2022-10-23T04:33:22.425Z,16.52
2022-10-23T04:35:49.649Z,18.52
2022-10-23T04:38:16.915Z,22.48
2022-10-23T04:40:44.344Z,25.83
2022-10-23T04:43:11.878Z,22.00
2022-10-23T04:45:40.125Z,14.05
2022-10-23T04:48:07.251Z,20.00
2022-10-23T04:50:34.561Z,16.88
2022-10-23T04:53:01.822Z,18.98
2022-10-23T04:55:29.134Z,15.45
2022-10-23T04:57:56.325Z,19.40
2022-10-23T05:00:23.754Z,14.73
2022-10-23T05:02:51.018Z,13.98
2022-10-23T05:05:19.021Z,28.65
2022-10-23T05:07:46.285Z,15.98
2022-10-23T05:10:13.726Z,21.60
2022-10-23T05:12:41.090Z,17.10
2022-10-23T05:15:08.591Z,11.73
2022-10-23T05:17:38.455Z,16.75
2022-10-23T05:20:08.431Z,20.30
2022-10-23T05:22:37.759Z,13.80
2022-10-23T05:25:05.722Z,16.08
2022-10-23T05:27:33.040Z,20.60
2022-10-23T05:30:00.281Z,13.18
2022-10-23T05:32:28.632Z,24.33
2022-10-23T05:34:57.630Z,13.68
2022-10-23T05:37:25.025Z,22.90
2022-10-23T05:39:52.794Z,14.65
2022-10-23T05:42:20.223Z,18.10
2022-10-23T05:44:47.374Z,15.80
2022-10-23T05:47:14.571Z,22.80
2022-10-23T05:49:41.654Z,17.55
2022-10-23T05:52:11.406Z,17.25
2022-10-23T05:54:38.549Z,18.55
2022-10-23T05:57:05.832Z,14.27
2022-10-23T05:59:33.087Z,21.48
2022-10-23T06:02:00.632Z,13.95
2022-10-23T06:04:28.105Z,19.40
2022-10-23T06:06:55.512Z,17.25
2022-10-23T06:09:22.889Z,18.27
2022-10-23T06:11:51.285Z,13.57
2022-10-23T06:14:18.790Z,16.75
2022-10-23T06:16:46.136Z,15.65
2022-10-23T06:19:13.378Z,13.15
2022-10-23T06:21:41.179Z,13.55
2022-10-23T06:24:08.506Z,17.55
2022-10-23T06:26:36.860Z,18.77
2022-10-23T06:29:04.429Z,13.48
2022-10-23T06:31:31.828Z,14.15
2022-10-23T06:33:59.977Z,16.95
2022-10-23T06:36:27.603Z,16.05
2022-10-23T06:38:56.393Z,13.32
2022-10-23T06:41:23.960Z,21.52
2022-10-23T06:43:52.432Z,16.70
2022-10-23T06:46:19.564Z,23.83
2022-10-23T06:48:47.256Z,20.30
2022-10-23T06:51:17.056Z,14.35
2022-10-23T06:53:45.362Z,16.40
2022-10-23T06:56:13.355Z,13.52
2022-10-23T06:58:41.552Z,21.25
2022-10-23T07:01:10.924Z,15.43
2022-10-23T07:03:38.302Z,37.22
2022-10-23T07:06:06.676Z,19.98
2022-10-23T07:08:34.644Z,23.85
2022-10-23T07:11:05.906Z,15.45
2022-10-23T07:16:00.727Z,15.70
2022-10-23T07:18:27.908Z,18.30
2022-10-23T07:20:58.967Z,18.55
2022-10-23T07:23:26.131Z,15.55
2022-10-23T07:25:53.511Z,18.65
2022-10-23T07:28:20.762Z,18.38
2022-10-23T07:30:56.955Z,19.95
2022-10-23T07:33:24.065Z,16.65
2022-10-23T07:35:51.209Z,23.80
2022-10-23T07:38:18.617Z,15.85
2022-10-23T07:40:46.607Z,16.73
2022-10-23T07:43:14.106Z,12.20
2022-10-23T07:45:41.400Z,20.15
2022-10-23T07:48:08.696Z,18.77
2022-10-23T07:50:38.494Z,24.52
2022-10-23T07:53:05.908Z,18.15
2022-10-23T07:55:33.463Z,22.05
2022-10-23T07:58:00.692Z,18.55
2022-10-23T08:00:35.388Z,11.50
2022-10-23T08:03:09.718Z,14.57
2022-10-23T08:05:39.870Z,11.60
2022-10-23T08:08:10.313Z,11.95
2022-10-23T08:10:39.656Z,15.07
2022-10-23T08:13:20.294Z,12.18
2022-10-23T08:15:51.667Z,13.65
2022-10-23T08:21:15.554Z,10.35
2022-10-23T08:23:44.263Z,15.32
2022-10-23T08:26:14.559Z,18.27
2022-10-23T08:28:42.322Z,13.47
2022-10-23T08:31:19.520Z,11.25
2022-10-23T08:33:47.284Z,12.77
2022-10-23T08:36:19.534Z,13.80
2022-10-23T08:38:49.937Z,11.02
2022-10-23T08:41:25.834Z,8.77
2022-10-23T08:44:09.044Z,8.95
2022-10-23T08:46:44.278Z,13.90
2022-10-23T08:49:31.497Z,13.52
2022-10-23T08:52:01.110Z,11.27
2022-10-23T08:54:49.549Z,10.85
2022-10-23T08:57:29.003Z,14.70
2022-10-23T09:00:06.421Z,16.23
2022-10-23T09:02:37.229Z,11.93
2022-10-23T09:05:20.958Z,10.75
2022-10-23T09:08:10.489Z,18.38
2022-10-23T09:10:39.353Z,11.10
2022-10-23T09:13:16.771Z,12.60
2022-10-23T09:15:51.887Z,10.35
2022-10-23T09:18:20.522Z,7.20
2022-10-23T09:20:55.666Z,12.93
2022-10-23T09:23:30.858Z,9.75
2022-10-23T09:26:03.880Z,11.05
2022-10-23T09:28:34.739Z,9.98
2022-10-23T09:31:16.882Z,12.60
2022-10-23T09:33:55.786Z,9.65
2022-10-23T09:36:26.456Z,12.38
2022-10-23T09:38:56.683Z,14.40
2022-10-23T09:41:36.622Z,14.60
2022-10-23T09:44:24.165Z,15.10
2022-10-23T09:46:54.511Z,10.35
2022-10-23T09:49:32.694Z,7.53
2022-10-23T09:52:24.314Z,7.10
2022-10-23T09:54:57.089Z,9.77
2022-10-23T09:57:29.975Z,9.27
2022-10-23T10:00:01.844Z,6.45
2022-10-23T10:02:30.330Z,7.03
2022-10-23T10:04:58.693Z,12.70
2022-10-23T10:07:34.778Z,10.32
2022-10-23T10:10:13.983Z,7.47
2022-10-23T10:12:52.497Z,13.32
2022-10-23T10:15:37.985Z,7.40
2022-10-23T10:18:10.647Z,7.63
2022-10-23T10:20:50.902Z,8.18
2022-10-23T10:23:34.550Z,11.10
2022-10-23T10:26:07.961Z,6.55
2022-10-23T10:28:54.084Z,6.53
2022-10-23T10:31:25.088Z,8.13
2022-10-23T10:36:36.445Z,6.07
2022-10-23T10:39:06.230Z,8.15
2022-10-23T10:41:43.039Z,11.70
2022-10-23T10:44:33.691Z,6.68
2022-10-23T10:47:12.612Z,10.23
2022-10-23T10:49:42.611Z,9.98
2022-10-23T10:52:10.944Z,8.50
2022-10-23T10:55:00.213Z,5.78
2022-10-23T10:57:46.269Z,7.63
2022-10-23T11:00:17.758Z,5.47
2022-10-23T11:05:35.867Z,11.05
2022-10-23T11:08:30.292Z,7.45
2022-10-23T11:11:09.219Z,9.50
2022-10-23T11:13:41.287Z,11.90
2022-10-23T11:16:21.451Z,4.88
2022-10-23T11:19:11.246Z,7.77
2022-10-23T11:21:54.541Z,4.78
2022-10-23T11:24:45.393Z,8.88
2022-10-23T11:27:26.216Z,6.85
2022-10-23T11:30:14.856Z,7.25
2022-10-23T11:32:42.626Z,15.27
2022-10-23T11:35:31.599Z,7.93
2022-10-23T11:38:01.013Z,7.22
2022-10-23T11:40:28.506Z,5.25
2022-10-23T11:42:56.678Z,10.48
2022-10-23T11:45:31.754Z,7.50
2022-10-23T11:48:04.417Z,8.27
2022-10-23T11:50:59.114Z,7.30
2022-10-23T11:53:31.937Z,9.60
2022-10-23T11:56:00.889Z,7.55
2022-10-23T11:58:32.421Z,12.82
2022-10-23T12:01:02.013Z,5.85
2022-10-23T12:03:35.797Z,6.60
2022-10-23T12:06:05.145Z,5.30
2022-10-23T12:08:34.565Z,6.72
2022-10-23T12:11:01.983Z,8.00
2022-10-23T12:13:31.417Z,9.90
2022-10-23T12:16:00.918Z,5.82
2022-10-23T12:18:29.079Z,5.35
2022-10-23T12:21:00.362Z,5.85
2022-10-23T12:23:27.621Z,11.43
2022-10-23T12:26:03.880Z,5.88
2022-10-23T12:28:49.316Z,8.20
2022-10-23T12:31:16.482Z,6.47
2022-10-23T12:33:46.904Z,4.03
2022-10-23T12:36:23.412Z,6.78
2022-10-23T12:38:50.933Z,6.28
2022-10-23T12:41:20.259Z,6.70
2022-10-23T12:43:52.424Z,5.55
2022-10-23T12:46:28.879Z,8.77
2022-10-23T12:48:57.228Z,11.75
2022-10-23T12:51:26.179Z,7.90
2022-10-23T12:53:54.495Z,10.05
2022-10-23T12:56:22.207Z,7.10
2022-10-23T12:58:54.077Z,8.82
2022-10-23T13:01:34.897Z,6.95
2022-10-23T13:04:22.737Z,5.60
2022-10-23T13:06:50.844Z,8.00
2022-10-23T13:09:28.248Z,8.13
2022-10-23T13:11:56.892Z,6.50
2022-10-23T13:14:30.946Z,7.57
2022-10-23T13:17:02.024Z,6.20
2022-10-23T13:19:29.247Z,12.80
2022-10-23T13:21:56.779Z,9.32
2022-10-23T13:24:25.557Z,7.55
2022-10-23T13:26:55.059Z,8.23
2022-10-23T13:29:30.345Z,6.75
2022-10-23T13:31:57.688Z,9.98
2022-10-23T13:34:26.988Z,4.75
2022-10-23T13:36:56.029Z,7.47
2022-10-23T13:39:24.100Z,7.63
2022-10-23T13:41:51.542Z,6.30
2022-10-23T13:44:20.285Z,10.35
2022-10-23T13:46:48.432Z,6.22
2022-10-23T13:49:16.342Z,6.43
2022-10-23T13:51:53.760Z,7.80
2022-10-23T13:54:23.708Z,6.55
2022-10-23T13:56:51.643Z,5.25
2022-10-23T13:59:19.074Z,7.57
2022-10-23T14:01:48.626Z,10.48
2022-10-23T14:04:16.795Z,9.95
2022-10-23T14:06:44.463Z,7.32
2022-10-23T14:09:13.255Z,10.93
2022-10-23T14:11:40.816Z,9.30
2022-10-23T14:14:07.995Z,5.30
2022-10-23T14:16:35.341Z,7.70
2022-10-23T14:19:03.901Z,8.75
2022-10-23T14:21:31.695Z,8.15
2022-10-23T14:23:59.076Z,7.95
2022-10-23T14:26:28.955Z,4.80
2022-10-23T14:28:57.552Z,7.40
2022-10-23T14:31:26.944Z,15.60
2022-10-23T14:33:55.989Z,5.10
2022-10-23T14:36:23.886Z,8.15
2022-10-23T14:38:55.438Z,5.97
2022-10-23T14:41:23.093Z,8.25
2022-10-23T14:43:50.377Z,7.22
2022-10-23T14:46:18.831Z,7.30
2022-10-23T14:48:48.189Z,7.63
2022-10-23T14:51:25.789Z,10.85
2022-10-23T14:53:58.853Z,8.18
2022-10-23T14:56:26.612Z,8.30
2022-10-23T14:58:54.148Z,10.10
2022-10-23T15:01:21.450Z,5.03
2022-10-23T15:03:54.622Z,6.53
2022-10-23T15:06:22.028Z,12.70
2022-10-23T15:08:55.104Z,6.85
2022-10-23T15:11:22.986Z,5.43
2022-10-23T15:13:50.613Z,6.10
2022-10-23T15:16:18.450Z,6.80
2022-10-23T15:18:45.668Z,6.97
2022-10-23T15:21:13.474Z,6.80
2022-10-23T15:23:41.585Z,6.22
2022-10-23T15:26:10.391Z,9.95
2022-10-23T15:28:37.612Z,8.75
2022-10-23T15:31:05.499Z,9.98
2022-10-23T15:33:32.903Z,9.40
2022-10-23T15:36:00.299Z,7.13
2022-10-23T15:38:27.528Z,8.90
2022-10-23T15:40:59.120Z,5.35
2022-10-23T15:43:26.525Z,5.78
2022-10-23T15:45:53.723Z,5.70
2022-10-23T15:48:21.166Z,6.53
2022-10-23T15:50:48.788Z,13.23
2022-10-23T15:53:16.054Z,4.97
2022-10-23T15:55:43.501Z,8.98
2022-10-23T15:58:11.393Z,9.43
2022-10-23T16:00:39.672Z,5.53
2022-10-23T16:03:07.082Z,5.97
2022-10-23T16:05:34.703Z,9.20
2022-10-23T16:08:02.318Z,4.85
2022-10-23T16:10:29.498Z,7.00
2022-10-23T16:12:56.800Z,6.07
2022-10-23T16:15:24.272Z,7.93
2022-10-23T16:17:51.714Z,7.75
2022-10-23T16:20:20.878Z,5.82
2022-10-23T16:22:48.220Z,8.23
2022-10-23T16:25:15.777Z,11.15
2022-10-23T16:27:43.611Z,7.00
2022-10-23T16:30:14.065Z,7.18
2022-10-23T16:32:41.816Z,8.07
2022-10-23T16:35:12.334Z,5.75
2022-10-23T16:37:40.304Z,9.32
2022-10-23T16:40:07.999Z,9.68
2022-10-23T16:42:35.229Z,6.80
2022-10-23T16:45:02.663Z,9.18
2022-10-23T16:47:31.774Z,10.80
2022-10-23T16:49:58.941Z,7.60
2022-10-23T16:52:26.129Z,11.13
2022-10-23T16:54:53.439Z,9.35
2022-10-23T16:57:20.735Z,10.88
2022-10-23T16:59:48.174Z,12.32
2022-10-23T17:02:15.524Z,10.15
2022-10-23T17:04:42.818Z,8.82
2022-10-23T17:07:10.116Z,7.22
2022-10-23T17:09:38.408Z,11.18
2022-10-23T17:12:06.721Z,8.70
2022-10-23T17:14:34.183Z,12.85
2022-10-23T17:17:01.603Z,14.25
2022-10-23T17:19:45.857Z,9.57
2022-10-23T17:22:14.220Z,6.85
2022-10-23T17:24:42.153Z,5.82
2022-10-23T17:27:10.234Z,6.43
2022-10-23T17:29:37.592Z,4.93
2022-10-23T17:32:04.752Z,8.32
2022-10-23T17:34:32.030Z,8.10
2022-10-23T17:36:59.355Z,4.70
2022-10-23T17:39:27.268Z,7.57
2022-10-23T17:41:55.475Z,7.78
2022-10-23T17:44:22.834Z,9.50
2022-10-23T17:46:53.771Z,7.57
2022-10-23T17:51:52.197Z,8.00
2022-10-23T17:54:19.416Z,9.98
2022-10-23T17:56:46.715Z,8.18
2022-10-23T17:59:14.986Z,7.28
2022-10-23T18:01:43.894Z,8.63
2022-10-23T18:04:11.169Z,9.25
2022-10-23T18:06:42.672Z,13.70
2022-10-23T18:09:09.833Z,7.47
2022-10-23T18:11:41.444Z,9.90
2022-10-23T18:14:11.592Z,12.10
2022-10-23T18:16:40.552Z,7.63
2022-10-23T18:19:07.774Z,9.38
2022-10-23T18:21:36.429Z,10.40
2022-10-23T18:24:03.982Z,15.50
2022-10-23T18:26:35.151Z,10.88
2022-10-23T18:29:07.105Z,9.30
2022-10-23T18:31:35.652Z,10.07
2022-10-23T18:34:05.082Z,10.75
2022-10-23T18:36:34.602Z,5.47
2022-10-23T18:39:02.117Z,13.10
2022-10-23T18:41:33.502Z,11.55
2022-10-23T18:44:00.597Z,9.45
2022-10-23T18:46:27.911Z,7.95
2022-10-23T18:48:55.051Z,10.77
2022-10-23T18:51:24.633Z,11.20
2022-10-23T18:53:55.683Z,7.90
2022-10-23T18:56:27.461Z,13.30
2022-10-23T18:59:06.796Z,8.73
2022-10-23T19:01:57.416Z,6.22
2022-10-23T19:04:27.610Z,14.70
2022-10-23T19:07:05.595Z,8.35
2022-10-23T19:09:34.914Z,7.75
2022-10-23T19:14:42.248Z,7.25
2022-10-23T19:17:21.315Z,9.25
2022-10-23T19:20:01.095Z,12.50
2022-10-23T19:22:43.700Z,5.43
2022-10-23T19:25:26.197Z,7.18
2022-10-23T19:27:59.733Z,5.95
2022-10-23T19:30:28.377Z,8.13
2022-10-23T19:32:59.736Z,7.05
2022-10-23T19:35:34.327Z,10.73
2022-10-23T19:38:08.222Z,11.05
2022-10-23T19:40:36.564Z,8.48
2022-10-23T19:43:07.866Z,8.05
2022-10-23T19:45:40.768Z,5.97
2022-10-23T19:48:17.472Z,5.65
2022-10-23T19:51:02.279Z,5.97
2022-10-23T19:53:35.882Z,7.97
2022-10-23T19:56:12.000Z,8.18
2022-10-23T19:58:43.489Z,7.05
2022-10-23T20:01:14.532Z,7.63
2022-10-23T20:06:39.169Z,7.30
2022-10-23T20:09:13.242Z,7.05
2022-10-23T20:11:48.123Z,3.88
2022-10-23T20:14:37.205Z,7.38
2022-10-23T20:17:08.373Z,6.55
2022-10-23T20:19:45.965Z,5.32
2022-10-23T20:22:24.475Z,7.03
2022-10-23T20:24:58.384Z,6.95
2022-10-23T20:27:29.421Z,7.60
2022-10-23T20:35:11.342Z,6.05
2022-10-23T20:37:47.604Z,4.40
2022-10-23T20:40:25.887Z,3.08
2022-10-23T20:43:02.517Z,3.53
2022-10-23T20:45:30.825Z,3.78
2022-10-23T20:47:57.961Z,4.40
2022-10-23T20:50:26.300Z,3.67
2022-10-23T20:52:53.378Z,5.40
2022-10-23T20:55:20.711Z,9.63
2022-10-23T20:57:48.111Z,6.00
2022-10-23T21:00:15.726Z,5.10
2022-10-23T21:02:47.202Z,8.55
2022-10-23T21:05:17.416Z,2.22
2022-10-23T21:07:45.953Z,5.95
2022-10-23T21:10:13.026Z,5.47
2022-10-23T21:12:40.330Z,6.70
2022-10-23T21:15:08.041Z,5.28
2022-10-23T21:17:38.709Z,4.07
2022-10-23T21:20:06.346Z,3.15
2022-10-23T21:22:33.657Z,3.33
2022-10-23T21:25:01.683Z,10.57
2022-10-23T21:27:29.159Z,8.32
2022-10-23T21:29:56.286Z,5.88
2022-10-23T21:32:23.452Z,3.35
2022-10-23T21:34:50.644Z,5.55
2022-10-23T21:37:17.746Z,9.18
2022-10-23T21:39:45.102Z,5.47
2022-10-23T21:42:13.274Z,6.15
2022-10-23T21:44:40.761Z,4.75
2022-10-23T21:47:07.869Z,8.35
2022-10-23T21:49:38.491Z,8.40
2022-10-23T21:52:05.721Z,7.90
2022-10-23T21:54:33.437Z,5.75
2022-10-23T21:57:03.296Z,6.43
2022-10-23T21:59:33.145Z,4.80
2022-10-23T22:02:02.848Z,3.95
2022-10-23T22:04:30.205Z,4.40
2022-10-23T22:06:57.366Z,9.20
2022-10-23T22:09:24.627Z,8.23
2022-10-23T22:11:52.935Z,9.60
2022-10-23T22:14:20.600Z,7.60
2022-10-23T22:16:48.262Z,4.47
2022-10-23T22:19:20.905Z,7.28
2022-10-23T22:21:48.757Z,4.38
2022-10-23T22:24:17.466Z,5.13
2022-10-23T22:26:46.287Z,6.80
2022-10-23T22:29:15.574Z,9.32
2022-10-23T22:31:45.566Z,9.70
2022-10-23T22:34:28.692Z,7.05
2022-10-23T22:37:06.729Z,3.75
2022-10-23T22:39:33.874Z,9.27
2022-10-23T22:42:01.338Z,8.13
2022-10-23T22:44:28.544Z,8.48
2022-10-23T22:46:56.055Z,10.27
2022-10-23T22:49:23.293Z,10.18
2022-10-23T22:51:50.655Z,4.75
2022-10-23T22:54:17.747Z,7.28
2022-10-23T22:56:45.112Z,12.02
2022-10-23T22:59:12.232Z,7.93
2022-10-23T23:01:41.958Z,12.10
2022-10-23T23:04:26.081Z,11.77
2022-10-23T23:06:56.895Z,13.02
2022-10-23T23:09:24.126Z,8.07
2022-10-23T23:11:52.468Z,12.07
2022-10-23T23:14:23.565Z,7.22
2022-10-23T23:16:52.470Z,9.63
2022-10-23T23:19:19.883Z,9.35
2022-10-23T23:21:47.447Z,10.13
2022-10-23T23:24:15.241Z,15.18
2022-10-23T23:26:42.613Z,8.07
2022-10-23T23:29:09.942Z,9.13
2022-10-23T23:31:37.042Z,12.82
2022-10-23T23:34:04.583Z,8.25
2022-10-23T23:36:32.689Z,13.57
2022-10-23T23:39:00.477Z,12.13
2022-10-23T23:41:28.445Z,13.32
2022-10-23T23:43:56.925Z,9.00
2022-10-23T23:46:24.469Z,13.80
2022-10-23T23:48:51.764Z,12.65
2022-10-23T23:51:20.400Z,8.95
2022-10-23T23:53:48.669Z,9.02
2022-10-23T23:56:16.057Z,10.45
2022-10-23T23:58:43.467Z,13.60
